sensor_id;sensor_type;location;lat;lon;timestamp;P1;durP1;ratioP1;P2;durP2;ratioP2
19828;SDS011;10075;50.924;4.396;2022-12-18T00:02:08;65.60;;;30.97;;
19828;SDS011;10075;50.924;4.396;2022-12-18T00:04:37;62.90;;;30.50;;
19828;SDS011;10075;50.924;4.396;2022-12-18T00:07:04;55.27;;;28.67;;
19828;SDS011;10075;50.924;4.396;2022-12-18T00:09:31;56.63;;;27.97;;
19828;SDS011;10075;50.924;4.396;2022-12-18T00:11:58;61.47;;;28.77;;
19828;SDS011;10075;50.924;4.396;2022-12-18T00:14:25;59.47;;;27.70;;
19828;SDS011;10075;50.924;4.396;2022-12-18T00:16:52;60.13;;;28.47;;
19828;SDS011;10075;50.924;4.396;2022-12-18T00:19:19;65.00;;;28.83;;
19828;SDS011;10075;50.924;4.396;2022-12-18T00:21:48;58.20;;;29.40;;
19828;SDS011;10075;50.924;4.396;2022-12-18T00:24:15;66.70;;;31.40;;
19828;SDS011;10075;50.924;4.396;2022-12-18T00:26:42;62.60;;;30.30;;
19828;SDS011;10075;50.924;4.396;2022-12-18T00:29:10;62.67;;;28.93;;
19828;SDS011;10075;50.924;4.396;2022-12-18T00:31:39;71.03;;;33.47;;
19828;SDS011;10075;50.924;4.396;2022-12-18T00:34:08;74.73;;;33.63;;
19828;SDS011;10075;50.924;4.396;2022-12-18T00:36:37;67.17;;;30.30;;
19828;SDS011;10075;50.924;4.396;2022-12-18T00:39:06;62.60;;;29.33;;
19828;SDS011;10075;50.924;4.396;2022-12-18T00:41:34;61.23;;;29.47;;
19828;SDS011;10075;50.924;4.396;2022-12-18T00:44:17;66.30;;;31.50;;
19828;SDS011;10075;50.924;4.396;2022-12-18T00:46:45;64.80;;;31.70;;
19828;SDS011;10075;50.924;4.396;2022-12-18T00:49:13;62.90;;;29.07;;
19828;SDS011;10075;50.924;4.396;2022-12-18T00:51:41;65.17;;;31.70;;
19828;SDS011;10075;50.924;4.396;2022-12-18T00:54:10;69.07;;;30.87;;
19828;SDS011;10075;50.924;4.396;2022-12-18T00:56:37;63.57;;;31.33;;
19828;SDS011;10075;50.924;4.396;2022-12-18T00:59:05;64.70;;;28.87;;
19828;SDS011;10075;50.924;4.396;2022-12-18T01:01:32;60.77;;;28.20;;
19828;SDS011;10075;50.924;4.396;2022-12-18T01:04:00;61.70;;;29.10;;
19828;SDS011;10075;50.924;4.396;2022-12-18T01:06:28;64.00;;;30.10;;
19828;SDS011;10075;50.924;4.396;2022-12-18T01:08:55;61.80;;;30.70;;
19828;SDS011;10075;50.924;4.396;2022-12-18T01:11:24;65.53;;;30.20;;
19828;SDS011;10075;50.924;4.396;2022-12-18T01:13:52;64.30;;;28.47;;
19828;SDS011;10075;50.924;4.396;2022-12-18T01:16:20;64.90;;;29.07;;
19828;SDS011;10075;50.924;4.396;2022-12-18T01:18:49;59.57;;;28.33;;
19828;SDS011;10075;50.924;4.396;2022-12-18T01:21:19;60.60;;;29.83;;
19828;SDS011;10075;50.924;4.396;2022-12-18T01:23:46;64.87;;;29.63;;
19828;SDS011;10075;50.924;4.396;2022-12-18T01:26:17;60.97;;;28.10;;
19828;SDS011;10075;50.924;4.396;2022-12-18T01:28:45;62.30;;;30.43;;
19828;SDS011;10075;50.924;4.396;2022-12-18T01:31:13;67.50;;;30.80;;
19828;SDS011;10075;50.924;4.396;2022-12-18T01:33:43;68.97;;;29.93;;
19828;SDS011;10075;50.924;4.396;2022-12-18T01:36:18;67.07;;;31.43;;
19828;SDS011;10075;50.924;4.396;2022-12-18T01:38:46;68.47;;;30.90;;
19828;SDS011;10075;50.924;4.396;2022-12-18T01:41:13;61.07;;;28.30;;
19828;SDS011;10075;50.924;4.396;2022-12-18T01:43:42;64.30;;;29.67;;
19828;SDS011;10075;50.924;4.396;2022-12-18T01:46:12;65.43;;;30.07;;
19828;SDS011;10075;50.924;4.396;2022-12-18T01:48:39;63.93;;;28.73;;
19828;SDS011;10075;50.924;4.396;2022-12-18T01:51:08;57.93;;;27.80;;
19828;SDS011;10075;50.924;4.396;2022-12-18T01:53:37;59.60;;;27.83;;
19828;SDS011;10075;50.924;4.396;2022-12-18T01:56:06;60.50;;;28.43;;
19828;SDS011;10075;50.924;4.396;2022-12-18T01:58:37;58.77;;;28.37;;
19828;SDS011;10075;50.924;4.396;2022-12-18T02:01:08;65.33;;;30.37;;
19828;SDS011;10075;50.924;4.396;2022-12-18T02:03:39;62.73;;;29.27;;
19828;SDS011;10075;50.924;4.396;2022-12-18T02:06:10;62.67;;;29.27;;
19828;SDS011;10075;50.924;4.396;2022-12-18T02:08:45;60.23;;;28.23;;
19828;SDS011;10075;50.924;4.396;2022-12-18T02:11:22;65.50;;;29.53;;
19828;SDS011;10075;50.924;4.396;2022-12-18T02:13:57;65.20;;;30.07;;
19828;SDS011;10075;50.924;4.396;2022-12-18T02:16:32;61.07;;;28.83;;
19828;SDS011;10075;50.924;4.396;2022-12-18T02:19:09;69.23;;;29.73;;
19828;SDS011;10075;50.924;4.396;2022-12-18T02:21:49;58.90;;;28.33;;
19828;SDS011;10075;50.924;4.396;2022-12-18T02:24:27;61.10;;;27.40;;
19828;SDS011;10075;50.924;4.396;2022-12-18T02:27:01;60.80;;;28.70;;
19828;SDS011;10075;50.924;4.396;2022-12-18T02:29:32;62.90;;;27.67;;
19828;SDS011;10075;50.924;4.396;2022-12-18T02:32:05;53.47;;;26.33;;
19828;SDS011;10075;50.924;4.396;2022-12-18T02:34:38;59.73;;;27.23;;
19828;SDS011;10075;50.924;4.396;2022-12-18T02:37:07;56.30;;;27.83;;
19828;SDS011;10075;50.924;4.396;2022-12-18T02:39:38;53.60;;;26.20;;
19828;SDS011;10075;50.924;4.396;2022-12-18T02:42:09;55.40;;;25.33;;
19828;SDS011;10075;50.924;4.396;2022-12-18T02:44:41;50.80;;;24.90;;
19828;SDS011;10075;50.924;4.396;2022-12-18T02:47:09;53.70;;;25.47;;
19828;SDS011;10075;50.924;4.396;2022-12-18T02:49:40;50.90;;;25.13;;
19828;SDS011;10075;50.924;4.396;2022-12-18T02:52:17;55.83;;;26.07;;
19828;SDS011;10075;50.924;4.396;2022-12-18T02:54:55;56.83;;;26.90;;
19828;SDS011;10075;50.924;4.396;2022-12-18T02:57:35;55.03;;;25.73;;
19828;SDS011;10075;50.924;4.396;2022-12-18T03:00:08;59.43;;;24.97;;
19828;SDS011;10075;50.924;4.396;2022-12-18T03:02:39;47.17;;;24.20;;
19828;SDS011;10075;50.924;4.396;2022-12-18T03:05:13;42.33;;;21.93;;
19828;SDS011;10075;50.924;4.396;2022-12-18T03:07:44;45.27;;;22.63;;
19828;SDS011;10075;50.924;4.396;2022-12-18T03:10:17;50.97;;;25.03;;
19828;SDS011;10075;50.924;4.396;2022-12-18T03:12:52;51.97;;;21.97;;
19828;SDS011;10075;50.924;4.396;2022-12-18T03:15:22;43.90;;;22.53;;
19828;SDS011;10075;50.924;4.396;2022-12-18T03:17:55;51.77;;;22.57;;
19828;SDS011;10075;50.924;4.396;2022-12-18T03:20:25;43.70;;;21.60;;
19828;SDS011;10075;50.924;4.396;2022-12-18T03:22:57;44.83;;;20.77;;
19828;SDS011;10075;50.924;4.396;2022-12-18T03:25:28;48.13;;;22.00;;
19828;SDS011;10075;50.924;4.396;2022-12-18T03:28:00;42.27;;;21.50;;
19828;SDS011;10075;50.924;4.396;2022-12-18T03:30:29;41.27;;;20.17;;
19828;SDS011;10075;50.924;4.396;2022-12-18T03:33:00;43.40;;;20.40;;
19828;SDS011;10075;50.924;4.396;2022-12-18T03:35:32;37.23;;;19.63;;
19828;SDS011;10075;50.924;4.396;2022-12-18T03:38:01;43.63;;;19.87;;
19828;SDS011;10075;50.924;4.396;2022-12-18T03:40:29;40.00;;;20.30;;
19828;SDS011;10075;50.924;4.396;2022-12-18T03:43:03;39.57;;;19.90;;
19828;SDS011;10075;50.924;4.396;2022-12-18T03:45:36;37.97;;;19.30;;
19828;SDS011;10075;50.924;4.396;2022-12-18T03:48:09;44.53;;;22.20;;
19828;SDS011;10075;50.924;4.396;2022-12-18T03:50:45;44.93;;;22.03;;
19828;SDS011;10075;50.924;4.396;2022-12-18T03:53:18;40.33;;;20.77;;
19828;SDS011;10075;50.924;4.396;2022-12-18T03:55:53;47.03;;;22.00;;
19828;SDS011;10075;50.924;4.396;2022-12-18T03:58:24;37.53;;;19.60;;
19828;SDS011;10075;50.924;4.396;2022-12-18T04:00:53;39.97;;;20.20;;
19828;SDS011;10075;50.924;4.396;2022-12-18T04:03:23;42.37;;;21.20;;
19828;SDS011;10075;50.924;4.396;2022-12-18T04:05:54;37.27;;;20.23;;
19828;SDS011;10075;50.924;4.396;2022-12-18T04:08:23;38.77;;;19.70;;
19828;SDS011;10075;50.924;4.396;2022-12-18T04:10:51;37.00;;;19.90;;
19828;SDS011;10075;50.924;4.396;2022-12-18T04:13:21;39.83;;;19.47;;
19828;SDS011;10075;50.924;4.396;2022-12-18T04:15:51;40.97;;;20.77;;
19828;SDS011;10075;50.924;4.396;2022-12-18T04:18:18;42.40;;;20.50;;
19828;SDS011;10075;50.924;4.396;2022-12-18T04:20:45;41.67;;;20.27;;
19828;SDS011;10075;50.924;4.396;2022-12-18T04:23:12;36.20;;;19.50;;
19828;SDS011;10075;50.924;4.396;2022-12-18T04:25:39;39.90;;;19.00;;
19828;SDS011;10075;50.924;4.396;2022-12-18T04:28:06;38.53;;;19.33;;
19828;SDS011;10075;50.924;4.396;2022-12-18T04:30:35;36.03;;;19.70;;
19828;SDS011;10075;50.924;4.396;2022-12-18T04:33:02;34.87;;;17.53;;
19828;SDS011;10075;50.924;4.396;2022-12-18T04:35:29;38.40;;;18.97;;
19828;SDS011;10075;50.924;4.396;2022-12-18T04:37:56;38.20;;;18.70;;
19828;SDS011;10075;50.924;4.396;2022-12-18T04:40:23;43.00;;;18.80;;
19828;SDS011;10075;50.924;4.396;2022-12-18T04:42:50;35.37;;;17.83;;
19828;SDS011;10075;50.924;4.396;2022-12-18T04:45:17;38.50;;;19.97;;
19828;SDS011;10075;50.924;4.396;2022-12-18T04:47:45;38.07;;;18.23;;
19828;SDS011;10075;50.924;4.396;2022-12-18T04:50:12;34.80;;;19.23;;
19828;SDS011;10075;50.924;4.396;2022-12-18T04:52:39;40.67;;;19.03;;
19828;SDS011;10075;50.924;4.396;2022-12-18T04:55:07;39.90;;;19.40;;
19828;SDS011;10075;50.924;4.396;2022-12-18T04:57:34;38.83;;;18.50;;
19828;SDS011;10075;50.924;4.396;2022-12-18T05:00:02;37.10;;;18.90;;
19828;SDS011;10075;50.924;4.396;2022-12-18T05:02:30;38.10;;;18.67;;
19828;SDS011;10075;50.924;4.396;2022-12-18T05:04:59;36.87;;;18.27;;
19828;SDS011;10075;50.924;4.396;2022-12-18T05:07:26;32.87;;;16.80;;
19828;SDS011;10075;50.924;4.396;2022-12-18T05:09:53;31.70;;;17.10;;
19828;SDS011;10075;50.924;4.396;2022-12-18T05:12:20;38.30;;;19.03;;
19828;SDS011;10075;50.924;4.396;2022-12-18T05:14:47;37.43;;;18.50;;
19828;SDS011;10075;50.924;4.396;2022-12-18T05:17:14;35.90;;;18.33;;
19828;SDS011;10075;50.924;4.396;2022-12-18T05:19:41;34.87;;;18.27;;
19828;SDS011;10075;50.924;4.396;2022-12-18T05:22:10;38.17;;;17.80;;
19828;SDS011;10075;50.924;4.396;2022-12-18T05:24:37;35.53;;;17.67;;
19828;SDS011;10075;50.924;4.396;2022-12-18T05:27:04;31.13;;;17.20;;
19828;SDS011;10075;50.924;4.396;2022-12-18T05:29:31;34.57;;;17.83;;
19828;SDS011;10075;50.924;4.396;2022-12-18T05:31:58;32.90;;;17.53;;
19828;SDS011;10075;50.924;4.396;2022-12-18T05:34:26;33.40;;;18.70;;
19828;SDS011;10075;50.924;4.396;2022-12-18T05:36:53;32.93;;;18.50;;
19828;SDS011;10075;50.924;4.396;2022-12-18T05:39:21;35.20;;;19.73;;
19828;SDS011;10075;50.924;4.396;2022-12-18T05:41:48;37.83;;;18.23;;
19828;SDS011;10075;50.924;4.396;2022-12-18T05:44:15;31.60;;;16.83;;
19828;SDS011;10075;50.924;4.396;2022-12-18T05:46:43;38.63;;;17.57;;
19828;SDS011;10075;50.924;4.396;2022-12-18T05:49:10;34.67;;;17.47;;
19828;SDS011;10075;50.924;4.396;2022-12-18T05:51:37;38.20;;;20.03;;
19828;SDS011;10075;50.924;4.396;2022-12-18T05:54:04;43.13;;;21.33;;
19828;SDS011;10075;50.924;4.396;2022-12-18T05:56:32;40.23;;;19.57;;
19828;SDS011;10075;50.924;4.396;2022-12-18T05:58:59;43.13;;;20.87;;
19828;SDS011;10075;50.924;4.396;2022-12-18T06:01:26;43.27;;;21.60;;
19828;SDS011;10075;50.924;4.396;2022-12-18T06:03:54;42.13;;;20.57;;
19828;SDS011;10075;50.924;4.396;2022-12-18T06:06:22;40.93;;;21.17;;
19828;SDS011;10075;50.924;4.396;2022-12-18T06:08:50;38.37;;;21.27;;
19828;SDS011;10075;50.924;4.396;2022-12-18T06:11:18;41.43;;;20.03;;
19828;SDS011;10075;50.924;4.396;2022-12-18T06:13:49;39.43;;;20.60;;
19828;SDS011;10075;50.924;4.396;2022-12-18T06:16:16;38.30;;;18.83;;
19828;SDS011;10075;50.924;4.396;2022-12-18T06:18:43;34.43;;;17.73;;
19828;SDS011;10075;50.924;4.396;2022-12-18T06:21:11;36.20;;;18.17;;
19828;SDS011;10075;50.924;4.396;2022-12-18T06:23:38;35.33;;;17.80;;
19828;SDS011;10075;50.924;4.396;2022-12-18T06:26:05;33.60;;;16.67;;
19828;SDS011;10075;50.924;4.396;2022-12-18T06:28:33;32.13;;;17.43;;
19828;SDS011;10075;50.924;4.396;2022-12-18T06:31:01;31.90;;;16.80;;
19828;SDS011;10075;50.924;4.396;2022-12-18T06:33:29;31.20;;;16.77;;
19828;SDS011;10075;50.924;4.396;2022-12-18T06:35:59;33.27;;;16.77;;
19828;SDS011;10075;50.924;4.396;2022-12-18T06:38:27;34.07;;;16.83;;
19828;SDS011;10075;50.924;4.396;2022-12-18T06:40:54;31.67;;;16.40;;
19828;SDS011;10075;50.924;4.396;2022-12-18T06:43:21;36.17;;;18.43;;
19828;SDS011;10075;50.924;4.396;2022-12-18T06:45:48;35.27;;;18.73;;
19828;SDS011;10075;50.924;4.396;2022-12-18T06:48:19;35.77;;;18.77;;
19828;SDS011;10075;50.924;4.396;2022-12-18T06:50:46;39.83;;;20.40;;
19828;SDS011;10075;50.924;4.396;2022-12-18T06:53:13;36.40;;;18.50;;
19828;SDS011;10075;50.924;4.396;2022-12-18T06:55:40;34.77;;;17.47;;
19828;SDS011;10075;50.924;4.396;2022-12-18T06:58:07;34.07;;;17.90;;
19828;SDS011;10075;50.924;4.396;2022-12-18T07:00:35;31.73;;;17.97;;
19828;SDS011;10075;50.924;4.396;2022-12-18T07:03:02;27.97;;;16.10;;
19828;SDS011;10075;50.924;4.396;2022-12-18T07:05:31;33.07;;;16.87;;
19828;SDS011;10075;50.924;4.396;2022-12-18T07:07:58;32.47;;;17.40;;
19828;SDS011;10075;50.924;4.396;2022-12-18T07:10:26;38.17;;;17.07;;
19828;SDS011;10075;50.924;4.396;2022-12-18T07:12:53;30.13;;;16.13;;
19828;SDS011;10075;50.924;4.396;2022-12-18T07:15:20;28.63;;;15.50;;
19828;SDS011;10075;50.924;4.396;2022-12-18T07:17:48;28.27;;;13.80;;
19828;SDS011;10075;50.924;4.396;2022-12-18T07:20:15;25.87;;;14.10;;
19828;SDS011;10075;50.924;4.396;2022-12-18T07:22:44;29.80;;;14.93;;
19828;SDS011;10075;50.924;4.396;2022-12-18T07:25:11;27.40;;;15.70;;
19828;SDS011;10075;50.924;4.396;2022-12-18T07:27:38;34.20;;;16.47;;
19828;SDS011;10075;50.924;4.396;2022-12-18T07:30:06;30.37;;;17.00;;
19828;SDS011;10075;50.924;4.396;2022-12-18T07:32:34;34.37;;;16.03;;
19828;SDS011;10075;50.924;4.396;2022-12-18T07:35:02;26.50;;;15.77;;
19828;SDS011;10075;50.924;4.396;2022-12-18T07:37:29;27.97;;;14.47;;
19828;SDS011;10075;50.924;4.396;2022-12-18T07:39:57;29.03;;;15.40;;
19828;SDS011;10075;50.924;4.396;2022-12-18T07:42:24;25.83;;;14.50;;
19828;SDS011;10075;50.924;4.396;2022-12-18T07:44:57;28.97;;;14.97;;
19828;SDS011;10075;50.924;4.396;2022-12-18T07:47:25;25.83;;;14.47;;
19828;SDS011;10075;50.924;4.396;2022-12-18T07:49:52;30.30;;;15.47;;
19828;SDS011;10075;50.924;4.396;2022-12-18T07:52:19;27.07;;;14.70;;
19828;SDS011;10075;50.924;4.396;2022-12-18T07:54:46;30.23;;;16.80;;
19828;SDS011;10075;50.924;4.396;2022-12-18T07:57:16;25.50;;;14.57;;
19828;SDS011;10075;50.924;4.396;2022-12-18T07:59:43;29.63;;;14.47;;
19828;SDS011;10075;50.924;4.396;2022-12-18T08:02:10;28.03;;;14.07;;
19828;SDS011;10075;50.924;4.396;2022-12-18T08:04:37;28.60;;;15.03;;
19828;SDS011;10075;50.924;4.396;2022-12-18T08:07:04;28.03;;;15.53;;
19828;SDS011;10075;50.924;4.396;2022-12-18T08:09:34;27.57;;;16.20;;
19828;SDS011;10075;50.924;4.396;2022-12-18T08:12:02;32.07;;;16.40;;
19828;SDS011;10075;50.924;4.396;2022-12-18T08:14:30;27.97;;;14.83;;
19828;SDS011;10075;50.924;4.396;2022-12-18T08:16:58;24.83;;;14.33;;
19828;SDS011;10075;50.924;4.396;2022-12-18T08:19:25;25.40;;;13.17;;
19828;SDS011;10075;50.924;4.396;2022-12-18T08:21:52;22.93;;;12.97;;
19828;SDS011;10075;50.924;4.396;2022-12-18T08:24:19;30.47;;;14.10;;
19828;SDS011;10075;50.924;4.396;2022-12-18T08:26:46;20.30;;;11.50;;
19828;SDS011;10075;50.924;4.396;2022-12-18T08:29:13;21.37;;;11.97;;
19828;SDS011;10075;50.924;4.396;2022-12-18T08:31:41;19.73;;;11.10;;
19828;SDS011;10075;50.924;4.396;2022-12-18T08:34:09;19.10;;;11.87;;
19828;SDS011;10075;50.924;4.396;2022-12-18T08:36:36;19.23;;;10.60;;
19828;SDS011;10075;50.924;4.396;2022-12-18T08:39:03;18.03;;;10.00;;
19828;SDS011;10075;50.924;4.396;2022-12-18T08:41:30;15.37;;;9.40;;
19828;SDS011;10075;50.924;4.396;2022-12-18T08:43:57;19.97;;;10.50;;
19828;SDS011;10075;50.924;4.396;2022-12-18T08:46:43;18.87;;;11.13;;
19828;SDS011;10075;50.924;4.396;2022-12-18T08:49:11;16.97;;;9.87;;
19828;SDS011;10075;50.924;4.396;2022-12-18T08:51:38;15.37;;;9.33;;
19828;SDS011;10075;50.924;4.396;2022-12-18T08:54:06;19.30;;;10.17;;
19828;SDS011;10075;50.924;4.396;2022-12-18T08:56:33;20.43;;;11.20;;
19828;SDS011;10075;50.924;4.396;2022-12-18T08:59:00;17.30;;;10.13;;
19828;SDS011;10075;50.924;4.396;2022-12-18T09:01:29;19.43;;;10.70;;
19828;SDS011;10075;50.924;4.396;2022-12-18T09:03:58;13.57;;;9.17;;
19828;SDS011;10075;50.924;4.396;2022-12-18T09:06:25;15.47;;;9.37;;
19828;SDS011;10075;50.924;4.396;2022-12-18T09:08:52;16.07;;;9.30;;
19828;SDS011;10075;50.924;4.396;2022-12-18T09:11:20;17.33;;;9.67;;
19828;SDS011;10075;50.924;4.396;2022-12-18T09:13:48;16.10;;;10.23;;
19828;SDS011;10075;50.924;4.396;2022-12-18T09:16:16;15.50;;;9.40;;
19828;SDS011;10075;50.924;4.396;2022-12-18T09:18:44;18.10;;;9.63;;
19828;SDS011;10075;50.924;4.396;2022-12-18T09:21:14;15.63;;;9.23;;
19828;SDS011;10075;50.924;4.396;2022-12-18T09:23:42;19.17;;;10.87;;
19828;SDS011;10075;50.924;4.396;2022-12-18T09:26:10;15.90;;;8.73;;
19828;SDS011;10075;50.924;4.396;2022-12-18T09:28:37;14.53;;;8.70;;
19828;SDS011;10075;50.924;4.396;2022-12-18T09:31:05;14.50;;;8.33;;
19828;SDS011;10075;50.924;4.396;2022-12-18T09:33:34;14.73;;;8.97;;
19828;SDS011;10075;50.924;4.396;2022-12-18T09:36:02;14.17;;;8.23;;
19828;SDS011;10075;50.924;4.396;2022-12-18T09:38:32;15.03;;;9.27;;
19828;SDS011;10075;50.924;4.396;2022-12-18T09:41:00;14.37;;;9.33;;
19828;SDS011;10075;50.924;4.396;2022-12-18T09:43:33;16.70;;;10.20;;
19828;SDS011;10075;50.924;4.396;2022-12-18T09:46:07;17.77;;;9.93;;
19828;SDS011;10075;50.924;4.396;2022-12-18T09:48:42;16.97;;;9.73;;
19828;SDS011;10075;50.924;4.396;2022-12-18T09:51:14;17.50;;;9.90;;
19828;SDS011;10075;50.924;4.396;2022-12-18T09:53:47;27.27;;;14.60;;
19828;SDS011;10075;50.924;4.396;2022-12-18T09:56:19;18.30;;;10.60;;
19828;SDS011;10075;50.924;4.396;2022-12-18T09:58:51;28.00;;;14.40;;
19828;SDS011;10075;50.924;4.396;2022-12-18T10:01:23;23.80;;;13.37;;
19828;SDS011;10075;50.924;4.396;2022-12-18T10:03:51;27.60;;;14.93;;
19828;SDS011;10075;50.924;4.396;2022-12-18T10:06:20;30.27;;;16.77;;
19828;SDS011;10075;50.924;4.396;2022-12-18T10:08:53;22.80;;;12.37;;
19828;SDS011;10075;50.924;4.396;2022-12-18T10:11:28;28.67;;;15.67;;
19828;SDS011;10075;50.924;4.396;2022-12-18T10:14:07;18.97;;;11.17;;
19828;SDS011;10075;50.924;4.396;2022-12-18T10:16:42;17.83;;;10.90;;
19828;SDS011;10075;50.924;4.396;2022-12-18T10:19:20;15.50;;;9.50;;
19828;SDS011;10075;50.924;4.396;2022-12-18T10:22:00;17.07;;;10.17;;
19828;SDS011;10075;50.924;4.396;2022-12-18T10:24:38;21.93;;;11.40;;
19828;SDS011;10075;50.924;4.396;2022-12-18T10:27:13;18.87;;;11.37;;
19828;SDS011;10075;50.924;4.396;2022-12-18T10:29:42;26.57;;;13.67;;
19828;SDS011;10075;50.924;4.396;2022-12-18T10:32:13;13.80;;;9.07;;
19828;SDS011;10075;50.924;4.396;2022-12-18T10:34:44;16.03;;;9.83;;
19828;SDS011;10075;50.924;4.396;2022-12-18T10:37:12;28.40;;;12.90;;
19828;SDS011;10075;50.924;4.396;2022-12-18T10:39:45;19.83;;;10.33;;
19828;SDS011;10075;50.924;4.396;2022-12-18T10:42:16;18.50;;;10.47;;
19828;SDS011;10075;50.924;4.396;2022-12-18T10:44:45;16.53;;;9.63;;
19828;SDS011;10075;50.924;4.396;2022-12-18T10:47:14;19.70;;;11.30;;
19828;SDS011;10075;50.924;4.396;2022-12-18T10:49:47;15.73;;;10.00;;
19828;SDS011;10075;50.924;4.396;2022-12-18T10:52:20;16.60;;;9.60;;
19828;SDS011;10075;50.924;4.396;2022-12-18T10:54:51;14.73;;;9.20;;
19828;SDS011;10075;50.924;4.396;2022-12-18T10:57:32;15.33;;;9.60;;
19828;SDS011;10075;50.924;4.396;2022-12-18T11:00:19;14.80;;;9.13;;
19828;SDS011;10075;50.924;4.396;2022-12-18T11:02:49;16.47;;;9.70;;
19828;SDS011;10075;50.924;4.396;2022-12-18T11:05:25;17.97;;;9.73;;
19828;SDS011;10075;50.924;4.396;2022-12-18T11:07:53;14.87;;;9.30;;
19828;SDS011;10075;50.924;4.396;2022-12-18T11:10:23;17.20;;;10.53;;
19828;SDS011;10075;50.924;4.396;2022-12-18T11:12:54;19.93;;;11.70;;
19828;SDS011;10075;50.924;4.396;2022-12-18T11:15:23;18.57;;;11.27;;
19828;SDS011;10075;50.924;4.396;2022-12-18T11:17:55;18.03;;;11.47;;
19828;SDS011;10075;50.924;4.396;2022-12-18T11:20:29;21.73;;;13.70;;
19828;SDS011;10075;50.924;4.396;2022-12-18T11:22:58;18.17;;;10.63;;
19828;SDS011;10075;50.924;4.396;2022-12-18T11:25:30;16.73;;;11.60;;
19828;SDS011;10075;50.924;4.396;2022-12-18T11:27:59;17.70;;;10.87;;
19828;SDS011;10075;50.924;4.396;2022-12-18T11:30:28;20.03;;;12.10;;
19828;SDS011;10075;50.924;4.396;2022-12-18T11:32:58;17.97;;;11.57;;
19828;SDS011;10075;50.924;4.396;2022-12-18T11:35:35;22.83;;;13.50;;
19828;SDS011;10075;50.924;4.396;2022-12-18T11:38:17;21.40;;;13.03;;
19828;SDS011;10075;50.924;4.396;2022-12-18T11:40:51;27.73;;;15.33;;
19828;SDS011;10075;50.924;4.396;2022-12-18T11:43:25;46.30;;;25.60;;
19828;SDS011;10075;50.924;4.396;2022-12-18T11:45:56;110.17;;;60.23;;
19828;SDS011;10075;50.924;4.396;2022-12-18T11:48:27;63.20;;;37.23;;
19828;SDS011;10075;50.924;4.396;2022-12-18T11:50:58;40.13;;;24.27;;
19828;SDS011;10075;50.924;4.396;2022-12-18T11:53:28;27.40;;;16.43;;
19828;SDS011;10075;50.924;4.396;2022-12-18T11:56:01;18.63;;;12.63;;
19828;SDS011;10075;50.924;4.396;2022-12-18T11:58:42;24.63;;;15.47;;
19828;SDS011;10075;50.924;4.396;2022-12-18T12:01:16;24.33;;;14.53;;
19828;SDS011;10075;50.924;4.396;2022-12-18T12:04:01;33.40;;;16.83;;
19828;SDS011;10075;50.924;4.396;2022-12-18T12:06:41;23.47;;;15.13;;
19828;SDS011;10075;50.924;4.396;2022-12-18T12:09:18;24.93;;;15.50;;
19828;SDS011;10075;50.924;4.396;2022-12-18T12:12:10;25.53;;;16.20;;
19828;SDS011;10075;50.924;4.396;2022-12-18T12:14:51;28.03;;;15.27;;
19828;SDS011;10075;50.924;4.396;2022-12-18T12:17:31;29.53;;;16.73;;
19828;SDS011;10075;50.924;4.396;2022-12-18T12:20:07;24.40;;;15.13;;
19828;SDS011;10075;50.924;4.396;2022-12-18T12:22:41;24.13;;;15.03;;
19828;SDS011;10075;50.924;4.396;2022-12-18T12:25:20;23.43;;;14.93;;
19828;SDS011;10075;50.924;4.396;2022-12-18T12:27:57;31.23;;;18.20;;
19828;SDS011;10075;50.924;4.396;2022-12-18T12:30:39;24.23;;;15.20;;
19828;SDS011;10075;50.924;4.396;2022-12-18T12:33:19;25.03;;;14.40;;
19828;SDS011;10075;50.924;4.396;2022-12-18T12:35:57;23.20;;;13.77;;
19828;SDS011;10075;50.924;4.396;2022-12-18T12:38:34;24.23;;;14.63;;
19828;SDS011;10075;50.924;4.396;2022-12-18T12:41:06;20.60;;;13.77;;
19828;SDS011;10075;50.924;4.396;2022-12-18T12:43:58;21.10;;;13.57;;
19828;SDS011;10075;50.924;4.396;2022-12-18T12:46:28;24.03;;;14.43;;
19828;SDS011;10075;50.924;4.396;2022-12-18T12:48:59;24.63;;;15.07;;
19828;SDS011;10075;50.924;4.396;2022-12-18T12:51:29;23.60;;;14.33;;
19828;SDS011;10075;50.924;4.396;2022-12-18T12:54:00;22.27;;;12.70;;
19828;SDS011;10075;50.924;4.396;2022-12-18T12:56:32;22.33;;;13.60;;
19828;SDS011;10075;50.924;4.396;2022-12-18T12:59:10;20.60;;;12.77;;
19828;SDS011;10075;50.924;4.396;2022-12-18T13:01:40;23.30;;;13.50;;
19828;SDS011;10075;50.924;4.396;2022-12-18T13:04:18;21.13;;;13.20;;
19828;SDS011;10075;50.924;4.396;2022-12-18T13:06:50;25.07;;;12.53;;
19828;SDS011;10075;50.924;4.396;2022-12-18T13:09:29;18.37;;;12.10;;
19828;SDS011;10075;50.924;4.396;2022-12-18T13:12:00;20.27;;;12.87;;
19828;SDS011;10075;50.924;4.396;2022-12-18T13:14:48;23.17;;;12.80;;
19828;SDS011;10075;50.924;4.396;2022-12-18T13:17:16;26.57;;;14.30;;
19828;SDS011;10075;50.924;4.396;2022-12-18T13:20:02;24.20;;;15.17;;
19828;SDS011;10075;50.924;4.396;2022-12-18T13:22:34;23.73;;;13.87;;
19828;SDS011;10075;50.924;4.396;2022-12-18T13:25:03;21.17;;;12.70;;
19828;SDS011;10075;50.924;4.396;2022-12-18T13:27:55;23.57;;;16.00;;
19828;SDS011;10075;50.924;4.396;2022-12-18T13:30:47;28.13;;;16.67;;
19828;SDS011;10075;50.924;4.396;2022-12-18T13:36:26;26.27;;;16.13;;
19828;SDS011;10075;50.924;4.396;2022-12-18T13:39:15;28.00;;;15.27;;
19828;SDS011;10075;50.924;4.396;2022-12-18T13:41:49;26.90;;;15.27;;
19828;SDS011;10075;50.924;4.396;2022-12-18T13:44:31;29.10;;;16.93;;
19828;SDS011;10075;50.924;4.396;2022-12-18T13:47:01;26.30;;;15.50;;
19828;SDS011;10075;50.924;4.396;2022-12-18T13:49:32;26.57;;;14.73;;
19828;SDS011;10075;50.924;4.396;2022-12-18T13:52:14;24.20;;;14.60;;
19828;SDS011;10075;50.924;4.396;2022-12-18T13:54:45;25.97;;;15.37;;
19828;SDS011;10075;50.924;4.396;2022-12-18T13:57:25;29.03;;;14.53;;
19828;SDS011;10075;50.924;4.396;2022-12-18T13:59:53;27.80;;;15.27;;
19828;SDS011;10075;50.924;4.396;2022-12-18T14:02:23;27.97;;;15.37;;
19828;SDS011;10075;50.924;4.396;2022-12-18T14:04:52;27.43;;;16.10;;
19828;SDS011;10075;50.924;4.396;2022-12-18T14:07:20;26.90;;;15.60;;
19828;SDS011;10075;50.924;4.396;2022-12-18T14:09:49;29.77;;;15.20;;
19828;SDS011;10075;50.924;4.396;2022-12-18T14:12:19;27.10;;;16.53;;
19828;SDS011;10075;50.924;4.396;2022-12-18T14:15:06;28.73;;;17.23;;
19828;SDS011;10075;50.924;4.396;2022-12-18T14:17:43;30.00;;;15.97;;
19828;SDS011;10075;50.924;4.396;2022-12-18T14:20:12;28.77;;;17.40;;
19828;SDS011;10075;50.924;4.396;2022-12-18T14:22:42;29.47;;;17.53;;
19828;SDS011;10075;50.924;4.396;2022-12-18T14:25:14;30.50;;;17.13;;
19828;SDS011;10075;50.924;4.396;2022-12-18T14:27:44;30.63;;;18.07;;
19828;SDS011;10075;50.924;4.396;2022-12-18T14:33:03;31.57;;;17.93;;
19828;SDS011;10075;50.924;4.396;2022-12-18T14:35:32;27.47;;;17.30;;
19828;SDS011;10075;50.924;4.396;2022-12-18T14:40:54;33.00;;;18.77;;
19828;SDS011;10075;50.924;4.396;2022-12-18T14:43:22;33.10;;;19.00;;
19828;SDS011;10075;50.924;4.396;2022-12-18T14:45:49;33.67;;;18.93;;
19828;SDS011;10075;50.924;4.396;2022-12-18T14:48:19;35.07;;;19.27;;
19828;SDS011;10075;50.924;4.396;2022-12-18T14:50:54;36.87;;;19.60;;
19828;SDS011;10075;50.924;4.396;2022-12-18T14:53:26;36.47;;;19.00;;